createdAt,value
2022-10-11T00:01:21.819Z,9.70
2022-10-11T00:03:48.418Z,9.64
2022-10-11T00:06:14.991Z,9.57
2022-10-11T00:08:41.695Z,9.47
2022-10-11T00:11:08.376Z,9.38
2022-10-11T00:13:35.721Z,9.36
2022-10-11T00:16:08.755Z,9.25
2022-10-11T00:18:35.457Z,9.21
2022-10-11T00:21:04.934Z,9.11
2022-10-11T00:23:31.848Z,9.00
2022-10-11T00:26:04.026Z,8.91
2022-10-11T00:28:33.854Z,8.75
2022-10-11T00:31:00.990Z,8.74
2022-10-11T00:33:27.942Z,8.68
2022-10-11T00:35:54.409Z,8.67
2022-10-11T00:38:21.125Z,8.56
2022-10-11T00:40:47.759Z,8.47
2022-10-11T00:43:21.300Z,8.39
2022-10-11T00:45:56.852Z,8.30
2022-10-11T00:48:42.301Z,8.21
2022-10-11T00:51:23.708Z,8.13
2022-10-11T00:53:51.565Z,8.06
2022-10-11T00:56:25.255Z,8.02
2022-10-11T00:58:54.243Z,7.94
2022-10-11T01:01:20.955Z,7.84
2022-10-11T01:03:47.612Z,7.89
2022-10-11T01:06:14.104Z,7.79
2022-10-11T01:08:40.642Z,7.71
2022-10-11T01:11:14.542Z,7.65
2022-10-11T01:13:47.261Z,7.58
2022-10-11T01:16:31.000Z,7.55
2022-10-11T01:19:35.320Z,7.50
2022-10-11T01:22:36.455Z,7.46
2022-10-11T01:25:21.446Z,7.48
2022-10-11T01:28:02.496Z,7.46
2022-10-11T01:30:31.598Z,7.41
2022-10-11T01:33:27.393Z,7.57
2022-10-11T01:36:01.419Z,7.55
2022-10-11T01:38:56.522Z,7.67
2022-10-11T01:41:28.087Z,7.67
2022-10-11T01:43:59.493Z,7.54
2022-10-11T01:46:28.623Z,7.51
2022-10-11T01:48:58.322Z,7.47
2022-10-11T01:51:29.014Z,7.47
2022-10-11T01:54:09.566Z,7.46
2022-10-11T01:57:09.295Z,7.47
2022-10-11T01:59:35.694Z,7.38
2022-10-11T02:02:39.790Z,7.37
2022-10-11T02:05:19.871Z,7.41
2022-10-11T02:08:07.309Z,7.34
2022-10-11T02:10:50.690Z,7.26
2022-10-11T02:13:36.698Z,7.27
2022-10-11T02:16:07.893Z,7.30
2022-10-11T02:18:39.212Z,7.30
2022-10-11T02:21:08.747Z,7.22
2022-10-11T02:23:41.182Z,7.12
2022-10-11T02:26:11.153Z,7.06
2022-10-11T02:28:41.873Z,7.02
2022-10-11T02:31:11.597Z,6.97
2022-10-11T02:33:44.391Z,6.85
2022-10-11T02:36:17.971Z,6.83
2022-10-11T02:38:49.794Z,6.79
2022-10-11T02:41:19.669Z,6.69
2022-10-11T02:43:57.481Z,6.69
2022-10-11T02:46:26.280Z,6.62
2022-10-11T02:48:53.840Z,6.59
2022-10-11T02:51:20.475Z,6.55
2022-10-11T02:53:47.476Z,6.64
2022-10-11T02:56:14.047Z,6.54
2022-10-11T02:58:40.504Z,6.45
2022-10-11T03:01:07.090Z,6.44
2022-10-11T03:03:33.636Z,6.56
2022-10-11T03:06:02.482Z,6.79
2022-10-11T03:08:29.742Z,6.85
2022-10-11T03:10:56.432Z,6.89
2022-10-11T03:13:22.941Z,6.91
2022-10-11T03:16:02.334Z,6.95
2022-10-11T03:18:29.848Z,6.86
2022-10-11T03:20:56.434Z,6.91
2022-10-11T03:23:22.906Z,6.86
2022-10-11T03:25:49.619Z,6.91
2022-10-11T03:28:16.146Z,6.92
2022-10-11T03:30:42.632Z,6.92
2022-10-11T03:33:09.113Z,6.89
2022-10-11T03:35:35.619Z,6.76
2022-10-11T03:38:02.110Z,6.71
2022-10-11T03:40:28.611Z,6.68
2022-10-11T03:42:56.579Z,6.64
2022-10-11T03:45:23.519Z,6.59
2022-10-11T03:47:50.050Z,6.65
2022-10-11T03:50:16.799Z,6.68
2022-10-11T03:52:43.315Z,6.71
2022-10-11T03:55:09.795Z,6.62
2022-10-11T03:57:36.273Z,6.58
2022-10-11T04:00:02.900Z,6.55
2022-10-11T04:02:29.599Z,6.55
2022-10-11T04:04:56.105Z,6.55
2022-10-11T04:07:22.816Z,6.48
2022-10-11T04:09:49.367Z,6.44
2022-10-11T04:12:15.934Z,6.40
2022-10-11T04:14:42.431Z,6.42
2022-10-11T04:17:08.986Z,6.49
2022-10-11T04:19:37.205Z,6.41
2022-10-11T04:22:07.291Z,6.40
2022-10-11T04:24:34.069Z,6.42
2022-10-11T04:27:00.598Z,6.40
2022-10-11T04:29:32.206Z,6.37
2022-10-11T04:31:59.438Z,6.38
2022-10-11T04:34:26.171Z,6.40
2022-10-11T04:36:52.718Z,6.48
2022-10-11T04:39:19.250Z,6.42
2022-10-11T04:41:45.802Z,6.38
2022-10-11T04:44:12.480Z,6.32
2022-10-11T04:46:39.087Z,6.40
2022-10-11T04:49:06.110Z,6.30
2022-10-11T04:51:33.763Z,6.35
2022-10-11T04:54:00.384Z,6.31
2022-10-11T04:56:26.888Z,6.32
2022-10-11T04:58:54.606Z,6.23
2022-10-11T05:01:21.456Z,6.20
2022-10-11T05:03:48.328Z,6.18
2022-10-11T05:06:15.032Z,6.24
2022-10-11T05:08:41.663Z,6.31
2022-10-11T05:11:15.788Z,6.31
2022-10-11T05:13:43.868Z,6.30
2022-10-11T05:16:11.799Z,6.23
2022-10-11T05:18:39.426Z,6.20
2022-10-11T05:21:20.555Z,6.28
2022-10-11T05:23:48.493Z,6.18
2022-10-11T05:26:16.093Z,6.11
2022-10-11T05:28:42.877Z,6.09
2022-10-11T05:31:09.731Z,6.09
2022-10-11T05:33:36.710Z,6.06
2022-10-11T05:36:04.029Z,6.03
2022-10-11T05:38:30.774Z,5.99
2022-10-11T05:41:01.864Z,5.97
2022-10-11T05:43:29.364Z,6.10
2022-10-11T05:45:57.226Z,6.28
2022-10-11T05:48:26.903Z,6.25
2022-10-11T05:50:59.141Z,6.27
2022-10-11T05:53:25.906Z,6.27
2022-10-11T05:55:52.436Z,6.31
2022-10-11T05:58:19.282Z,6.35
2022-10-11T06:00:45.876Z,6.38
2022-10-11T06:03:13.343Z,6.44
2022-10-11T06:05:40.069Z,6.45
2022-10-11T06:08:08.587Z,6.59
2022-10-11T06:10:36.270Z,6.68
2022-10-11T06:13:03.041Z,6.78
2022-10-11T06:15:29.663Z,6.88
2022-10-11T06:17:56.550Z,6.97
2022-10-11T06:20:23.006Z,7.06
2022-10-11T06:22:49.464Z,7.14
2022-10-11T06:25:16.073Z,7.19
2022-10-11T06:27:42.670Z,7.24
2022-10-11T06:30:09.665Z,7.31
2022-10-11T06:32:36.273Z,7.37
2022-10-11T06:35:04.106Z,7.41
2022-10-11T06:37:30.793Z,7.50
2022-10-11T06:39:57.375Z,7.60
2022-10-11T06:42:24.233Z,7.75
2022-10-11T06:44:50.772Z,7.86
2022-10-11T06:47:17.237Z,7.99
2022-10-11T06:49:43.763Z,7.92
2022-10-11T06:52:10.356Z,8.07
2022-10-11T06:54:40.074Z,8.10
2022-10-11T06:57:10.067Z,8.28
2022-10-11T06:59:36.610Z,8.46
2022-10-11T07:02:03.102Z,8.59
2022-10-11T07:04:29.672Z,8.64
2022-10-11T07:06:56.700Z,8.64
2022-10-11T07:09:23.296Z,8.71
2022-10-11T07:11:49.866Z,8.75
2022-10-11T07:14:16.411Z,8.98
2022-10-11T07:16:43.442Z,8.98
2022-10-11T07:19:10.049Z,9.11
2022-10-11T07:21:36.910Z,9.21
2022-10-11T07:24:03.980Z,9.35
2022-10-11T07:26:36.852Z,9.33
2022-10-11T07:29:05.859Z,9.39
2022-10-11T07:31:32.609Z,9.52
2022-10-11T07:33:59.157Z,9.62
2022-10-11T07:36:25.982Z,9.74
2022-10-11T07:38:52.513Z,9.60
2022-10-11T07:41:19.855Z,9.69
2022-10-11T07:43:47.930Z,9.77
2022-10-11T07:46:14.856Z,9.73
2022-10-11T07:48:41.817Z,9.84
2022-10-11T07:51:08.349Z,9.91
2022-10-11T07:53:39.495Z,10.15
2022-10-11T07:56:06.975Z,10.44
2022-10-11T07:58:33.853Z,10.52
2022-10-11T08:01:00.508Z,10.48
2022-10-11T08:03:27.290Z,10.77
2022-10-11T08:05:53.871Z,11.03
2022-10-11T08:08:20.379Z,10.88
2022-10-11T08:10:46.978Z,10.82
2022-10-11T08:13:14.386Z,11.12
2022-10-11T08:15:40.994Z,11.24
2022-10-11T08:18:07.471Z,11.72
2022-10-11T08:20:34.089Z,12.87
2022-10-11T08:23:00.656Z,13.99
2022-10-11T08:25:27.238Z,15.50
2022-10-11T08:27:53.737Z,16.55
2022-10-11T08:30:20.310Z,17.36
2022-10-11T08:32:46.835Z,17.12
2022-10-11T08:35:13.766Z,18.57
2022-10-11T08:37:40.336Z,18.10
2022-10-11T08:40:35.992Z,17.96
2022-10-11T08:43:05.552Z,16.95
2022-10-11T08:45:42.257Z,15.72
2022-10-11T08:48:18.449Z,16.29
2022-10-11T08:50:49.453Z,15.94
2022-10-11T08:53:22.821Z,14.83
2022-10-11T08:55:55.068Z,14.57
2022-10-11T08:58:37.928Z,14.57
2022-10-11T09:01:11.776Z,15.36
2022-10-11T09:03:41.976Z,16.87
2022-10-11T09:06:41.585Z,18.24
2022-10-11T09:09:26.651Z,19.40
2022-10-11T09:12:11.546Z,20.36
2022-10-11T09:14:38.046Z,21.75
2022-10-11T09:17:25.362Z,23.12
2022-10-11T09:20:28.846Z,22.92
2022-10-11T09:23:34.795Z,23.19
2022-10-11T09:26:07.541Z,22.78
2022-10-11T09:29:00.192Z,22.65
2022-10-11T09:31:28.476Z,23.38
2022-10-11T09:33:55.925Z,20.83
2022-10-11T09:36:37.551Z,21.88
2022-10-11T09:39:23.089Z,22.92
2022-10-11T09:41:58.753Z,22.86
2022-10-11T09:44:28.345Z,22.83
2022-10-11T09:46:56.869Z,23.69
2022-10-11T09:49:31.087Z,25.82
2022-10-11T09:52:00.763Z,25.50
2022-10-11T09:54:58.239Z,23.80
2022-10-11T09:57:30.389Z,24.82
2022-10-11T10:00:21.262Z,23.71
2022-10-11T10:02:51.010Z,24.58
2022-10-11T10:05:28.839Z,24.34
2022-10-11T10:08:04.537Z,24.69
2022-10-11T10:10:38.499Z,25.15
2022-10-11T10:13:16.280Z,22.03
2022-10-11T10:15:46.533Z,21.42
2022-10-11T10:18:29.637Z,19.54
2022-10-11T10:20:59.412Z,20.21
2022-10-11T10:23:29.742Z,18.84
2022-10-11T10:26:19.845Z,17.75
2022-10-11T10:29:08.453Z,16.70
2022-10-11T10:32:01.943Z,16.95
2022-10-11T10:34:31.475Z,17.48
2022-10-11T10:37:08.471Z,17.71
2022-10-11T10:39:49.960Z,18.03
2022-10-11T10:42:19.032Z,17.61
2022-10-11T10:44:52.458Z,18.38
2022-10-11T10:47:24.334Z,17.94
2022-10-11T10:50:00.666Z,17.71
2022-10-11T10:53:05.426Z,18.26
2022-10-11T10:55:42.846Z,18.13
2022-10-11T10:58:42.660Z,17.63
2022-10-11T11:01:15.801Z,17.41
2022-10-11T11:04:04.881Z,17.22
2022-10-11T11:06:51.114Z,17.18
2022-10-11T11:09:30.984Z,16.88
2022-10-11T11:12:25.574Z,16.56
2022-10-11T11:15:03.076Z,16.40
2022-10-11T11:18:20.697Z,16.36
2022-10-11T11:21:17.425Z,16.18
2022-10-11T11:24:11.534Z,17.01
2022-10-11T11:26:49.761Z,18.45
2022-10-11T11:29:37.827Z,19.30
2022-10-11T11:32:25.918Z,19.88
2022-10-11T11:35:09.189Z,19.20
2022-10-11T11:37:40.334Z,19.10
2022-10-11T11:40:17.455Z,19.39
2022-10-11T11:42:48.670Z,19.27
2022-10-11T11:45:22.682Z,19.27
2022-10-11T11:48:01.728Z,18.14
2022-10-11T11:50:37.026Z,18.33
2022-10-11T11:53:11.840Z,18.36
2022-10-11T11:55:52.595Z,19.13
2022-10-11T11:58:32.396Z,19.10
2022-10-11T12:01:15.546Z,19.05
2022-10-11T12:03:47.740Z,18.48
2022-10-11T12:06:14.528Z,17.97
2022-10-11T12:08:44.480Z,17.51
2022-10-11T12:11:36.954Z,17.07
2022-10-11T12:14:16.948Z,16.90
2022-10-11T12:17:06.949Z,16.91
2022-10-11T12:19:34.031Z,16.90
2022-10-11T12:22:19.106Z,16.88
2022-10-11T12:25:18.374Z,16.73
2022-10-11T12:27:51.521Z,16.84
2022-10-11T12:30:42.586Z,17.30
2022-10-11T12:33:22.223Z,17.78
2022-10-11T12:35:54.728Z,18.73
2022-10-11T12:38:37.744Z,19.64
2022-10-11T12:41:10.026Z,20.36
2022-10-11T12:44:19.198Z,19.87
2022-10-11T12:47:16.753Z,20.90
2022-10-11T12:50:12.542Z,21.10
2022-10-11T12:53:00.865Z,21.54
2022-10-11T12:55:50.644Z,21.52
2022-10-11T12:58:43.962Z,21.68
2022-10-11T13:01:17.347Z,21.24
2022-10-11T13:04:08.024Z,20.72
2022-10-11T13:06:38.031Z,20.36
2022-10-11T13:09:35.447Z,18.89
2022-10-11T13:12:23.330Z,18.20
2022-10-11T13:15:14.477Z,19.08
2022-10-11T13:17:41.588Z,19.16
2022-10-11T13:20:17.807Z,19.12
2022-10-11T13:22:51.036Z,18.73
2022-10-11T13:25:23.866Z,18.79
2022-10-11T13:27:52.958Z,19.67
2022-10-11T13:30:25.463Z,19.60
2022-10-11T13:32:53.181Z,18.96
2022-10-11T13:35:28.622Z,18.55
2022-10-11T13:37:55.359Z,19.37
2022-10-11T13:40:23.087Z,19.54
2022-10-11T13:42:51.718Z,19.91
2022-10-11T13:45:21.609Z,19.95
2022-10-11T13:47:50.093Z,19.37
2022-10-11T13:50:33.361Z,19.29
2022-10-11T13:53:01.179Z,18.94
2022-10-11T13:55:46.561Z,19.39
2022-10-11T13:58:23.182Z,19.77
2022-10-11T14:01:02.665Z,19.71
2022-10-11T14:03:45.947Z,19.66
2022-10-11T14:06:12.523Z,19.54
2022-10-11T14:08:41.788Z,18.99
2022-10-11T14:11:10.575Z,19.26
2022-10-11T14:13:40.139Z,19.01
2022-10-11T14:16:07.239Z,19.13
2022-10-11T14:18:42.864Z,18.96
2022-10-11T14:21:28.192Z,18.79
2022-10-11T14:24:01.472Z,18.68
2022-10-11T14:26:36.567Z,18.76
2022-10-11T14:29:07.980Z,18.30
2022-10-11T14:31:39.182Z,18.07
2022-10-11T14:34:08.952Z,17.79
2022-10-11T14:36:35.462Z,17.12
2022-10-11T14:39:01.985Z,17.11
2022-10-11T14:41:28.492Z,17.27
2022-10-11T14:43:56.498Z,17.22
2022-10-11T14:46:27.638Z,16.71
2022-10-11T14:48:56.318Z,16.29
2022-10-11T14:51:27.023Z,15.92
2022-10-11T14:53:54.029Z,15.63
2022-10-11T14:56:21.815Z,15.53
2022-10-11T14:58:48.926Z,15.55
2022-10-11T15:01:17.267Z,15.47
2022-10-11T15:03:43.943Z,15.64
2022-10-11T15:06:18.872Z,15.90
2022-10-11T15:08:45.458Z,15.95
2022-10-11T15:11:14.585Z,15.87
2022-10-11T15:13:41.228Z,15.58
2022-10-11T15:16:08.315Z,15.32
2022-10-11T15:18:35.118Z,15.23
2022-10-11T15:21:01.687Z,14.96
2022-10-11T15:23:28.228Z,14.85
2022-10-11T15:25:54.782Z,14.69
2022-10-11T15:28:29.674Z,14.37
2022-10-11T15:30:56.624Z,14.02
2022-10-11T15:33:24.096Z,13.74
2022-10-11T15:35:50.989Z,13.48
2022-10-11T15:38:20.078Z,13.32
2022-10-11T15:40:47.763Z,13.15
2022-10-11T15:43:14.939Z,13.01
2022-10-11T15:45:42.103Z,12.84
2022-10-11T15:48:14.574Z,12.71
2022-10-11T15:50:41.533Z,12.59
2022-10-11T15:53:17.854Z,12.42
2022-10-11T15:55:50.867Z,12.26
2022-10-11T15:58:21.695Z,12.13
2022-10-11T16:00:50.572Z,12.02
2022-10-11T16:03:18.402Z,11.85
2022-10-11T16:05:44.960Z,11.74
2022-10-11T16:08:11.871Z,11.58
2022-10-11T16:10:39.029Z,11.47
2022-10-11T16:13:05.816Z,11.35
2022-10-11T16:15:32.540Z,11.20
2022-10-11T16:17:59.119Z,11.07
2022-10-11T16:20:25.641Z,10.93
2022-10-11T16:22:53.674Z,10.85
2022-10-11T16:25:21.367Z,10.68
2022-10-11T16:27:48.131Z,10.61
2022-10-11T16:30:16.166Z,10.44
2022-10-11T16:32:44.351Z,10.32
2022-10-11T16:35:13.073Z,10.20
2022-10-11T16:37:40.734Z,10.10
2022-10-11T16:40:09.030Z,9.95
2022-10-11T16:42:35.736Z,9.83
2022-10-11T16:45:02.243Z,9.73
2022-10-11T16:47:28.887Z,9.62
2022-10-11T16:49:55.833Z,9.50
2022-10-11T16:52:22.510Z,9.40
2022-10-11T16:54:49.320Z,9.29
2022-10-11T16:57:17.750Z,9.21
2022-10-11T16:59:44.655Z,9.10
2022-10-11T17:02:17.079Z,8.98
2022-10-11T17:04:44.521Z,8.91
2022-10-11T17:07:14.629Z,8.83
2022-10-11T17:09:44.334Z,8.71
2022-10-11T17:12:13.497Z,8.60
2022-10-11T17:14:41.390Z,8.50
2022-10-11T17:17:09.166Z,8.46
2022-10-11T17:19:41.336Z,8.39
2022-10-11T17:22:12.327Z,8.28
2022-10-11T17:24:39.280Z,8.21
2022-10-11T17:27:06.853Z,8.10
2022-10-11T17:29:33.696Z,8.05
2022-10-11T17:32:00.610Z,7.98
2022-10-11T17:34:27.163Z,7.92
2022-10-11T17:36:53.680Z,7.85
2022-10-11T17:39:22.338Z,7.77
2022-10-11T17:41:49.740Z,7.72
2022-10-11T17:44:19.541Z,7.64
2022-10-11T17:46:47.227Z,7.61
2022-10-11T17:49:14.185Z,7.51
2022-10-11T17:51:41.219Z,7.44
2022-10-11T17:54:12.633Z,7.40
2022-10-11T17:56:40.912Z,7.34
2022-10-11T17:59:08.514Z,7.24
2022-10-11T18:01:35.794Z,7.22
2022-10-11T18:04:04.632Z,7.20
2022-10-11T18:06:33.493Z,7.13
2022-10-11T18:09:01.919Z,7.12
2022-10-11T18:11:29.089Z,7.07
2022-10-11T18:13:55.758Z,7.03
2022-10-11T18:16:24.726Z,6.97
2022-10-11T18:18:51.237Z,6.95
2022-10-11T18:21:18.741Z,6.86
2022-10-11T18:23:46.733Z,6.81
2022-10-11T18:26:19.509Z,6.76
2022-10-11T18:28:46.804Z,6.71
2022-10-11T18:31:17.755Z,6.64
2022-10-11T18:33:45.952Z,6.59
2022-10-11T18:36:15.270Z,6.55
2022-10-11T18:38:46.197Z,6.51
2022-10-11T18:41:15.117Z,6.45
2022-10-11T18:43:41.670Z,6.38
2022-10-11T18:46:11.358Z,6.37
2022-10-11T18:48:42.255Z,6.32
2022-10-11T18:51:14.891Z,6.30
2022-10-11T18:53:42.281Z,6.24
2022-10-11T18:56:10.433Z,6.20
2022-10-11T18:58:38.795Z,6.16
2022-10-11T19:01:15.928Z,6.10
2022-10-11T19:03:43.057Z,6.07
2022-10-11T19:06:16.842Z,6.06
2022-10-11T19:08:54.663Z,5.99
2022-10-11T19:11:22.742Z,5.99
2022-10-11T19:14:02.057Z,5.94
2022-10-11T19:16:29.785Z,5.92
2022-10-11T19:18:57.086Z,5.87
2022-10-11T19:21:23.698Z,5.85
2022-10-11T19:23:51.267Z,5.80
2022-10-11T19:26:27.030Z,5.77
2022-10-11T19:28:59.994Z,5.77
2022-10-11T19:31:27.133Z,5.74
2022-10-11T19:33:54.209Z,5.69
2022-10-11T19:36:20.724Z,5.66
2022-10-11T19:38:49.319Z,5.60
2022-10-11T19:41:18.671Z,5.58
2022-10-11T19:43:46.317Z,5.53
2022-10-11T19:46:20.318Z,5.51
2022-10-11T19:48:50.844Z,5.49
2022-10-11T19:51:26.248Z,5.43
2022-10-11T19:53:57.148Z,5.38
2022-10-11T19:56:27.538Z,5.34
2022-10-11T19:58:54.397Z,5.35
2022-10-11T20:01:26.692Z,5.34
2022-10-11T20:03:57.219Z,5.28
2022-10-11T20:06:25.656Z,5.25
2022-10-11T20:09:10.307Z,5.24
2022-10-11T20:11:39.264Z,5.21
2022-10-11T20:14:06.401Z,5.18
2022-10-11T20:16:33.086Z,5.15
2022-10-11T20:18:59.754Z,5.12
2022-10-11T20:21:29.466Z,5.12
2022-10-11T20:24:01.308Z,5.08
2022-10-11T20:26:29.092Z,5.04
2022-10-11T20:28:56.770Z,5.04
2022-10-11T20:31:29.224Z,5.00
2022-10-11T20:33:58.364Z,4.95
2022-10-11T20:36:27.861Z,4.97
2022-10-11T20:38:54.352Z,4.98
2022-10-11T20:41:23.575Z,5.00
2022-10-11T20:43:53.362Z,4.98
2022-10-11T20:46:27.896Z,4.98
2022-10-11T20:49:01.897Z,4.94
2022-10-11T20:51:30.262Z,4.91
2022-10-11T20:53:57.026Z,4.91
2022-10-11T20:56:23.743Z,4.91
2022-10-11T20:58:52.539Z,4.85
2022-10-11T21:01:26.207Z,4.83
2022-10-11T21:03:52.877Z,4.80
2022-10-11T21:06:19.773Z,4.76
2022-10-11T21:08:46.223Z,4.70
2022-10-11T21:11:12.962Z,4.70
2022-10-11T21:13:40.826Z,4.66
2022-10-11T21:16:11.268Z,4.62
2022-10-11T21:18:38.161Z,4.63
2022-10-11T21:21:09.514Z,4.59
2022-10-11T21:23:36.043Z,4.57
2022-10-11T21:26:06.388Z,4.52
2022-10-11T21:28:33.303Z,4.49
2022-10-11T21:31:08.541Z,4.46
2022-10-11T21:33:35.750Z,4.46
2022-10-11T21:36:21.972Z,4.40
2022-10-11T21:38:49.993Z,4.33
2022-10-11T21:41:19.745Z,4.35
2022-10-11T21:43:47.356Z,4.31
2022-10-11T21:46:18.391Z,4.25
2022-10-11T21:48:45.887Z,4.22
2022-10-11T21:51:18.074Z,4.21
2022-10-11T21:53:44.776Z,4.22
2022-10-11T21:56:11.446Z,4.19
2022-10-11T21:58:38.241Z,4.19
2022-10-11T22:01:05.057Z,4.16
2022-10-11T22:03:31.926Z,4.12
2022-10-11T22:06:01.650Z,4.16
2022-10-11T22:08:28.193Z,4.12
2022-10-11T22:10:57.313Z,4.11
2022-10-11T22:13:25.266Z,4.11
2022-10-11T22:15:51.762Z,4.12
2022-10-11T22:18:18.434Z,4.09
2022-10-11T22:20:44.907Z,4.11
2022-10-11T22:23:11.610Z,4.08
2022-10-11T22:25:39.107Z,4.06
2022-10-11T22:28:06.465Z,4.02
2022-10-11T22:30:33.128Z,4.03
2022-10-11T22:32:59.585Z,3.98
2022-10-11T22:35:26.171Z,3.98
2022-10-11T22:37:52.932Z,3.92
2022-10-11T22:40:20.368Z,3.91
2022-10-11T22:42:46.926Z,3.87
2022-10-11T22:45:13.450Z,3.87
2022-10-11T22:47:39.915Z,3.85
2022-10-11T22:50:06.833Z,3.84
2022-10-11T22:52:33.510Z,3.78
2022-10-11T22:54:59.972Z,3.80
2022-10-11T22:57:26.569Z,3.75
2022-10-11T22:59:53.172Z,3.77
2022-10-11T23:02:19.592Z,3.75
2022-10-11T23:04:46.089Z,3.75
2022-10-11T23:07:12.575Z,3.70
2022-10-11T23:09:39.180Z,3.71
2022-10-11T23:12:06.013Z,3.64
2022-10-11T23:14:32.422Z,3.61
2022-10-11T23:16:58.851Z,3.63
2022-10-11T23:19:25.335Z,3.56
2022-10-11T23:21:51.806Z,3.56
2022-10-11T23:24:18.313Z,3.50
2022-10-11T23:26:44.790Z,3.50
2022-10-11T23:29:11.602Z,3.44
2022-10-11T23:31:38.046Z,3.46
2022-10-11T23:34:04.516Z,3.46
2022-10-11T23:36:31.004Z,3.40
2022-10-11T23:38:59.411Z,3.36
2022-10-11T23:41:28.980Z,3.36
2022-10-11T23:43:55.575Z,3.34
2022-10-11T23:46:22.437Z,3.34
2022-10-11T23:48:49.021Z,3.32
2022-10-11T23:51:15.991Z,3.37
2022-10-11T23:53:42.554Z,3.37
2022-10-11T23:56:10.689Z,3.36
2022-10-11T23:58:37.813Z,3.36
